Ransomville, New York
Current Conditions -  °F | °C
As of 2:53 AM on Sunday 23 Nov 2014 (Local Time) from KIAG Reporting Station
Overcast Overcast  
Wind Chill: 40°   Ceiling: 3300
Heat Index: 46°   Visibility: 10mi
Dew Point: 40°   Wind: 13mph
Humidity: 79%   Direction: 230°SW
Pressure: 29.98"   Gusts: NA
Location:  43.24°N, 78.91°W
Report Text: KIAG 230753Z AUTO 23011KT 10SM OVC033 08/04 A2998 RMK AO2 SLP159 T00780044 $
Loading
Personal Weather Stations






























Interactive Weather Map New forecast layout! Learn more

10-Day Weather Forecast

Advertisements
Track Severe Weather on mobile